createdAt,value
2023-12-08T00:03:11.538Z,97953.00
2023-12-08T00:08:33.238Z,97942.00
2023-12-08T00:13:54.770Z,97932.00
2023-12-08T00:19:16.499Z,97917.00
2023-12-08T00:24:38.264Z,97912.00
2023-12-08T00:29:59.971Z,97886.00
2023-12-08T00:35:22.553Z,97879.00
2023-12-08T00:40:44.060Z,97878.00
2023-12-08T00:46:06.336Z,97868.00
2023-12-08T00:51:28.021Z,97844.00
2023-12-08T00:56:49.604Z,97853.00
2023-12-08T01:02:11.528Z,97836.00
2023-12-08T01:07:33.288Z,97834.00
2023-12-08T01:12:54.841Z,97841.00
2023-12-08T01:18:16.554Z,97827.00
2023-12-08T01:23:38.281Z,97810.00
2023-12-08T01:29:00.037Z,97812.00
2023-12-08T01:34:21.761Z,97809.00
2023-12-08T01:39:43.133Z,97821.00
2023-12-08T01:45:05.075Z,97821.00
2023-12-08T01:50:26.606Z,97821.00
2023-12-08T01:55:48.328Z,97821.00
2023-12-08T02:01:11.892Z,97824.00
2023-12-08T02:06:33.913Z,97797.00
2023-12-08T02:11:55.313Z,97805.00
2023-12-08T02:17:31.894Z,97785.00
2023-12-08T02:22:53.600Z,97793.00
2023-12-08T02:28:14.868Z,97755.00
2023-12-08T02:33:39.857Z,97750.00
2023-12-08T02:39:04.727Z,97739.00
2023-12-08T02:44:26.388Z,97725.00
2023-12-08T02:49:47.905Z,97706.00
2023-12-08T02:55:10.627Z,97689.00
2023-12-08T03:00:32.427Z,97698.00
2023-12-08T03:05:54.088Z,97684.00
2023-12-08T03:11:16.197Z,97695.00
2023-12-08T03:16:37.577Z,97680.00
2023-12-08T03:21:59.630Z,97672.00
2023-12-08T03:27:20.834Z,97665.00
2023-12-08T03:32:42.739Z,97654.00
2023-12-08T03:38:04.300Z,97638.00
2023-12-08T03:43:25.809Z,97641.00
2023-12-08T03:48:48.627Z,97641.00
2023-12-08T03:54:11.131Z,97634.00
2023-12-08T03:59:32.589Z,97638.00
2023-12-08T04:04:54.402Z,97641.00
2023-12-08T04:10:15.763Z,97647.00
2023-12-08T04:15:38.117Z,97648.00
2023-12-08T04:20:59.358Z,97624.00
2023-12-08T04:26:26.344Z,97609.00
2023-12-08T04:31:48.020Z,97610.00
2023-12-08T04:37:09.666Z,97609.00
2023-12-08T04:42:31.169Z,97604.00
2023-12-08T04:47:52.941Z,97592.00
2023-12-08T04:53:14.302Z,97600.00
2023-12-08T04:58:35.915Z,97597.00
2023-12-08T05:03:57.420Z,97573.00
2023-12-08T05:09:18.992Z,97591.00
2023-12-08T05:14:40.799Z,97577.00
2023-12-08T05:20:06.861Z,97586.00
2023-12-08T05:25:28.667Z,97592.00
2023-12-08T05:30:50.297Z,97608.00
2023-12-08T05:36:12.143Z,97597.00
2023-12-08T05:41:33.860Z,97577.00
2023-12-08T05:46:57.159Z,97557.00
2023-12-08T05:52:19.728Z,97577.00
2023-12-08T05:57:41.608Z,97573.00
2023-12-08T06:03:03.522Z,97572.00
2023-12-08T06:08:24.785Z,97574.00
2023-12-08T06:13:46.098Z,97557.00
2023-12-08T06:19:11.277Z,97548.00
2023-12-08T06:24:32.964Z,97544.00
2023-12-08T06:29:54.538Z,97540.00
2023-12-08T06:35:17.137Z,97526.00
2023-12-08T06:40:40.621Z,97505.00
2023-12-08T06:46:02.708Z,97524.00
2023-12-08T06:51:24.151Z,97504.00
2023-12-08T06:56:46.022Z,97509.00
2023-12-08T07:02:07.765Z,97522.00
2023-12-08T07:07:29.902Z,97509.00
2023-12-08T07:12:51.513Z,97512.00
2023-12-08T07:18:13.083Z,97515.00
2023-12-08T07:23:34.976Z,97516.00
2023-12-08T07:28:56.633Z,97509.00
2023-12-08T07:34:18.419Z,97499.00
2023-12-08T07:39:40.303Z,97512.00
2023-12-08T07:45:02.084Z,97509.00
2023-12-08T07:50:23.742Z,97529.00
2023-12-08T07:55:45.107Z,97524.00
2023-12-08T08:01:07.277Z,97519.00
2023-12-08T08:06:28.611Z,97524.00
2023-12-08T08:11:50.084Z,97532.00
2023-12-08T08:17:12.109Z,97547.00
2023-12-08T08:22:33.999Z,97552.00
2023-12-08T08:27:57.518Z,97551.00
2023-12-08T08:33:18.886Z,97553.00
2023-12-08T08:38:40.568Z,97560.00
2023-12-08T08:44:02.434Z,97550.00
2023-12-08T08:49:24.978Z,97543.00
2023-12-08T08:54:50.882Z,97529.00
2023-12-08T09:00:14.228Z,97530.00
2023-12-08T09:05:42.264Z,97523.00
2023-12-08T09:11:04.196Z,97523.00
2023-12-08T09:16:26.093Z,97510.00
2023-12-08T09:21:53.862Z,97501.00
2023-12-08T09:27:16.053Z,97499.00
2023-12-08T09:32:37.676Z,97500.00
2023-12-08T09:37:59.222Z,97504.00
2023-12-08T09:43:29.751Z,97501.00
2023-12-08T09:48:56.925Z,97485.00
2023-12-08T09:54:20.803Z,97477.00
2023-12-08T09:59:44.032Z,97470.00
2023-12-08T10:05:06.115Z,97468.00
2023-12-08T10:10:27.431Z,97469.00
2023-12-08T10:15:52.120Z,97472.00
2023-12-08T10:21:15.742Z,97464.00
2023-12-08T10:26:37.388Z,97472.00
2023-12-08T10:32:00.270Z,97464.00
2023-12-08T10:37:21.702Z,97469.00
2023-12-08T10:42:47.233Z,97482.00
2023-12-08T10:48:09.206Z,97483.00
2023-12-08T10:53:32.348Z,97478.00
2023-12-08T10:59:02.928Z,97465.00
2023-12-08T11:04:27.993Z,97487.00
2023-12-08T11:09:52.591Z,97493.00
2023-12-08T11:15:17.825Z,97492.00
2023-12-08T11:20:40.504Z,97491.00
2023-12-08T11:26:36.334Z,97486.00
2023-12-08T11:32:15.508Z,97487.00
2023-12-08T11:37:36.781Z,97483.00
2023-12-08T11:42:58.943Z,97494.00
2023-12-08T11:48:21.354Z,97498.00
2023-12-08T11:53:57.452Z,97503.00
2023-12-08T11:59:23.643Z,97488.00
2023-12-08T12:04:45.326Z,97481.00
2023-12-08T12:10:11.534Z,97484.00
2023-12-08T12:15:35.296Z,97492.00
2023-12-08T12:20:57.344Z,97481.00
2023-12-08T12:26:22.092Z,97470.00
2023-12-08T12:31:43.572Z,97479.00
2023-12-08T12:37:09.401Z,97464.00
2023-12-08T12:42:31.174Z,97451.00
2023-12-08T12:48:05.080Z,97458.00
2023-12-08T12:53:26.616Z,97461.00
2023-12-08T12:59:02.069Z,97464.00
2023-12-08T13:04:30.215Z,97459.00
2023-12-08T13:09:51.673Z,97452.00
2023-12-08T13:15:14.190Z,97464.00
2023-12-08T13:20:36.825Z,97460.00
2023-12-08T13:25:58.229Z,97454.00
2023-12-08T13:31:21.187Z,97471.00
2023-12-08T13:36:42.850Z,97467.00
2023-12-08T13:42:05.625Z,97458.00
2023-12-08T13:47:27.950Z,97463.00
2023-12-08T13:52:49.390Z,97496.00
2023-12-08T13:58:10.893Z,97494.00
2023-12-08T14:03:32.590Z,97486.00
2023-12-08T14:08:57.203Z,97503.00
2023-12-08T14:14:19.491Z,97496.00
2023-12-08T14:19:41.299Z,97495.00
2023-12-08T14:25:02.671Z,97509.00
2023-12-08T14:30:24.414Z,97501.00
2023-12-08T14:35:45.879Z,97514.00
2023-12-08T14:41:07.335Z,97512.00
2023-12-08T14:46:28.889Z,97510.00
2023-12-08T14:51:51.147Z,97499.00
2023-12-08T14:57:12.741Z,97492.00
2023-12-08T15:02:37.486Z,97497.00
2023-12-08T15:07:58.877Z,97516.00
2023-12-08T15:13:20.548Z,97516.00
2023-12-08T15:18:42.575Z,97527.00
2023-12-08T15:24:04.331Z,97525.00
2023-12-08T15:29:25.847Z,97529.00
2023-12-08T15:34:47.426Z,97525.00
2023-12-08T15:40:09.756Z,97519.00
2023-12-08T15:45:31.591Z,97524.00
2023-12-08T15:50:53.354Z,97516.00
2023-12-08T15:56:14.818Z,97517.00
2023-12-08T16:01:36.380Z,97521.00
2023-12-08T16:06:58.022Z,97523.00
2023-12-08T16:12:19.632Z,97523.00
2023-12-08T16:17:41.474Z,97521.00
2023-12-08T16:23:02.995Z,97513.00
2023-12-08T16:28:24.479Z,97523.00
2023-12-08T16:33:46.288Z,97527.00
2023-12-08T16:39:07.904Z,97522.00
2023-12-08T16:44:30.786Z,97519.00
2023-12-08T16:49:52.173Z,97526.00
2023-12-08T16:55:13.754Z,97517.00
2023-12-08T17:00:35.373Z,97511.00
2023-12-08T17:05:56.958Z,97518.00
2023-12-08T17:11:18.550Z,97504.00
2023-12-08T17:16:40.208Z,97496.00
2023-12-08T17:22:01.722Z,97520.00
2023-12-08T17:27:26.325Z,97521.00
2023-12-08T17:32:47.912Z,97528.00
2023-12-08T17:38:16.451Z,97520.00
2023-12-08T17:43:38.317Z,97532.00
2023-12-08T17:48:59.906Z,97538.00
2023-12-08T17:54:22.143Z,97544.00
2023-12-08T17:59:44.187Z,97544.00
2023-12-08T18:05:06.624Z,97540.00
2023-12-08T18:10:28.638Z,97545.00
2023-12-08T18:15:50.294Z,97556.00
2023-12-08T18:21:11.583Z,97561.00
2023-12-08T18:26:34.490Z,97570.00
2023-12-08T18:31:56.175Z,97577.00
2023-12-08T18:37:17.498Z,97569.00
2023-12-08T18:42:38.982Z,97586.00
2023-12-08T18:48:00.800Z,97587.00
2023-12-08T18:53:22.687Z,97593.00
2023-12-08T18:58:45.777Z,97600.00
2023-12-08T19:04:07.139Z,97600.00
2023-12-08T19:09:28.573Z,97604.00
2023-12-08T19:14:50.043Z,97607.00
2023-12-08T19:20:11.926Z,97615.00
2023-12-08T19:25:33.080Z,97616.00
2023-12-08T19:30:54.445Z,97634.00
2023-12-08T19:36:17.394Z,97630.00
2023-12-08T19:41:38.851Z,97638.00
2023-12-08T19:47:03.601Z,97639.00
2023-12-08T19:52:26.316Z,97643.00
2023-12-08T19:57:48.181Z,97643.00
2023-12-08T20:03:11.121Z,97643.00
2023-12-08T20:08:33.009Z,97646.00
2023-12-08T20:13:54.546Z,97650.00
2023-12-08T20:19:15.807Z,97644.00
2023-12-08T20:24:37.605Z,97648.00
2023-12-08T20:29:59.361Z,97647.00
2023-12-08T20:35:20.923Z,97656.00
2023-12-08T20:40:42.862Z,97673.00
2023-12-08T20:46:05.028Z,97675.00
2023-12-08T20:51:29.557Z,97663.00
2023-12-08T20:56:51.257Z,97666.00
2023-12-08T21:02:14.262Z,97683.00
2023-12-08T21:07:36.034Z,97672.00
2023-12-08T21:12:57.430Z,97673.00
2023-12-08T21:18:18.998Z,97675.00
2023-12-08T21:23:40.451Z,97684.00
2023-12-08T21:29:03.664Z,97687.00
2023-12-08T21:34:25.728Z,97688.00
2023-12-08T21:39:48.094Z,97694.00
2023-12-08T21:45:11.773Z,97708.00
2023-12-08T21:50:33.358Z,97707.00
2023-12-08T21:55:54.793Z,97706.00
2023-12-08T22:01:16.706Z,97713.00
2023-12-08T22:06:38.423Z,97715.00
2023-12-08T22:12:02.592Z,97716.00
2023-12-08T22:17:25.216Z,97726.00
2023-12-08T22:22:49.809Z,97724.00
2023-12-08T22:28:13.150Z,97728.00
2023-12-08T22:33:34.741Z,97734.00
2023-12-08T22:38:56.407Z,97741.00
2023-12-08T22:44:17.684Z,97738.00
2023-12-08T22:49:39.227Z,97741.00
2023-12-08T22:55:00.745Z,97744.00
2023-12-08T23:00:25.730Z,97742.00
2023-12-08T23:05:47.325Z,97746.00
2023-12-08T23:11:09.589Z,97754.00
2023-12-08T23:16:31.655Z,97758.00
2023-12-08T23:21:53.230Z,97755.00
2023-12-08T23:27:14.855Z,97766.00
2023-12-08T23:32:37.374Z,97760.00
2023-12-08T23:37:59.163Z,97767.00
2023-12-08T23:43:20.701Z,97772.00
2023-12-08T23:48:42.560Z,97778.00
2023-12-08T23:54:04.117Z,97769.00
2023-12-08T23:59:26.428Z,97782.00
